createdAt,value
2019-04-25T12:34:56.037Z,32.40
2019-04-25T12:39:01.213Z,33.70
2019-04-25T12:43:06.888Z,34.80
2019-04-25T12:47:18.181Z,35.60
2019-04-25T12:51:23.207Z,34.00
2019-04-25T12:55:34.178Z,33.30
2019-04-25T12:59:40.376Z,32.70
2019-04-25T13:03:45.327Z,33.10
2019-04-25T13:07:51.468Z,33.30
2019-04-25T13:11:57.298Z,34.50
2019-04-25T13:16:02.279Z,34.60
2019-04-25T13:20:07.684Z,35.10
2019-04-25T13:24:12.531Z,35.30
2019-04-25T13:28:34.942Z,35.60
2019-04-25T13:32:57.894Z,35.30
2019-04-25T13:37:04.978Z,35.70
2019-04-25T13:41:10.157Z,35.90
2019-04-25T13:45:15.834Z,36.70
2019-04-25T13:49:20.749Z,37.70
2019-04-25T13:53:25.983Z,36.50
2019-04-25T13:57:30.879Z,36.60
2019-04-25T14:01:36.528Z,36.00
2019-04-25T14:05:41.550Z,35.90
2019-04-25T14:09:46.708Z,33.70
2019-04-25T14:13:51.899Z,31.90
2019-04-25T14:18:07.872Z,33.10
2019-04-25T14:22:12.950Z,34.00
2019-04-25T14:26:18.160Z,34.50
2019-04-25T14:30:28.225Z,34.30
2019-04-25T14:34:39.445Z,34.10
2019-04-25T14:38:51.487Z,33.10
2019-04-25T14:43:02.460Z,33.80
2019-04-25T14:47:13.590Z,33.80
2019-04-25T14:51:22.992Z,34.10
2019-04-25T14:55:59.690Z,34.40
2019-04-25T15:00:08.039Z,33.80
2019-04-25T15:04:13.045Z,33.90
2019-04-25T15:08:18.060Z,35.60
2019-04-25T15:12:24.766Z,34.60
2019-04-25T15:16:29.910Z,33.20
2019-04-25T15:20:35.178Z,31.80
2019-04-25T15:24:40.373Z,30.20
2019-04-25T15:28:45.729Z,28.40
2019-04-25T15:32:50.858Z,27.40
2019-04-25T15:37:01.175Z,26.90
2019-04-25T15:41:18.219Z,26.50
2019-04-25T15:45:41.453Z,26.10
2019-04-25T15:49:46.609Z,25.80
2019-04-25T15:53:51.545Z,25.50
2019-04-25T15:58:00.259Z,25.40
2019-04-25T16:02:08.199Z,25.30
2019-04-25T16:06:13.567Z,25.20
2019-04-25T16:10:18.658Z,25.00
2019-04-25T16:14:23.874Z,24.70
2019-04-25T16:18:28.859Z,24.50
2019-04-25T16:22:34.418Z,24.40
2019-04-25T16:26:39.905Z,24.40
2019-04-25T16:30:44.887Z,24.20
2019-04-25T16:34:49.826Z,23.90
2019-04-25T16:39:19.445Z,23.60
2019-04-25T16:43:28.603Z,23.40
2019-04-25T16:47:35.161Z,23.00
2019-04-25T16:51:40.066Z,22.80
2019-04-25T16:55:44.986Z,22.70
2019-04-25T16:59:50.256Z,22.50
2019-04-25T17:03:55.198Z,22.30
2019-04-25T17:08:01.470Z,22.10
2019-04-25T17:12:08.353Z,22.10
2019-04-25T17:16:30.703Z,21.90
2019-04-25T17:20:40.436Z,21.80
2019-04-25T17:24:45.910Z,21.60
2019-04-25T17:28:52.356Z,21.40
2019-04-25T17:33:19.068Z,21.40
2019-04-25T17:37:31.933Z,21.30
2019-04-25T17:42:13.903Z,21.10
2019-04-25T17:46:21.172Z,21.10
2019-04-25T17:50:26.054Z,21.00
2019-04-25T17:54:32.808Z,20.80
2019-04-25T17:58:37.901Z,20.60
2019-04-25T18:02:43.530Z,20.40
2019-04-25T18:06:48.570Z,20.20
2019-04-25T18:10:53.461Z,20.20
2019-04-25T18:15:00.988Z,20.10
2019-04-25T18:19:09.995Z,19.90
2019-04-25T18:23:35.135Z,19.90
2019-04-25T18:27:50.287Z,19.80
2019-04-25T18:31:55.446Z,19.70
2019-04-25T18:36:12.447Z,19.40
2019-04-25T18:40:30.246Z,19.10
2019-04-25T18:44:35.625Z,18.90
2019-04-25T18:48:42.768Z,19.10
2019-04-25T18:52:57.304Z,19.00
2019-04-25T18:57:19.554Z,19.10
2019-04-25T19:01:41.824Z,18.90
2019-04-25T19:05:58.373Z,18.50
2019-04-25T19:10:04.730Z,18.10
2019-04-25T19:14:10.320Z,17.90
2019-04-25T19:18:16.201Z,17.60
2019-04-25T19:22:21.877Z,17.30
2019-04-25T19:26:26.753Z,17.10
2019-04-25T19:30:32.651Z,16.90
2019-04-25T19:34:40.166Z,16.70
2019-04-25T19:38:46.713Z,16.50
2019-04-25T19:42:55.780Z,16.40
2019-04-25T19:47:00.984Z,16.30
2019-04-25T19:51:06.426Z,16.20
2019-04-25T19:55:11.351Z,16.20
2019-04-25T19:59:16.264Z,16.20
2019-04-25T20:12:02.015Z,15.90
2019-04-25T20:16:08.683Z,15.90
2019-04-25T20:29:05.681Z,15.80
2019-04-25T20:33:10.911Z,15.70
2019-04-25T20:37:18.439Z,15.60
2019-04-25T20:41:23.550Z,15.50
2019-04-25T20:45:28.619Z,15.40
2019-04-25T20:49:33.619Z,15.30
2019-04-25T20:54:14.245Z,15.20
2019-04-25T20:58:19.159Z,15.10
2019-04-25T21:02:24.044Z,15.10
2019-04-25T21:06:33.224Z,15.10
2019-04-25T21:10:38.221Z,15.10
2019-04-25T21:15:00.405Z,15.10
2019-04-25T21:19:12.047Z,15.00
2019-04-25T21:23:17.182Z,15.00
2019-04-25T21:27:22.162Z,14.90
2019-04-25T21:31:27.024Z,14.80
2019-04-25T21:35:31.928Z,14.80
2019-04-25T21:39:52.337Z,14.70
2019-04-25T21:44:02.276Z,14.70
2019-04-25T21:48:07.426Z,14.60
2019-04-25T21:52:12.584Z,14.50
2019-04-25T21:56:17.749Z,14.50
2019-04-25T22:00:40.089Z,14.50
2019-04-25T22:04:45.157Z,14.40
2019-04-25T22:08:50.868Z,14.40
2019-04-25T22:12:57.714Z,14.30
2019-04-25T22:17:02.359Z,14.20
2019-04-25T22:21:07.746Z,14.10
2019-04-25T22:25:13.012Z,14.00
2019-04-25T22:29:18.002Z,13.90
2019-04-25T22:33:40.366Z,13.90
2019-04-25T22:37:45.533Z,13.80
2019-04-25T22:41:50.809Z,13.70
2019-04-25T22:45:56.558Z,13.70
2019-04-25T22:50:02.557Z,13.60
2019-04-25T22:54:07.974Z,13.50
2019-04-25T22:58:12.946Z,13.40
2019-04-25T23:02:33.343Z,13.40
2019-04-25T23:06:38.218Z,13.40
2019-04-25T23:10:43.204Z,13.30
2019-04-25T23:14:48.390Z,13.20
2019-04-25T23:18:53.310Z,13.20
2019-04-25T23:22:58.226Z,13.10
2019-04-25T23:27:14.333Z,13.00
2019-04-25T23:31:22.915Z,13.00
2019-04-25T23:35:30.049Z,12.90
2019-04-25T23:39:34.348Z,12.90
